Tiempo atmosférico en la estación meteorológica de Agüimes, Las Palmas (306 m.)



Fecha
DESCASC
Temp. máxima en grados centígrados (hora)
DESCASC
Temp. mínima en grados centígrados (hora)
DESCASC
Temp. media en grados centígrados
DESCASC
Racha de viento máxima en m/sg (hora)
DESCASC
Velocidad máxima media en intervalos de 10 minutos(hora)
DESCASC
Precipitaciones diarias en mm
DESCASC
Precipitaciones de 00:00 a 06:00 en mm
DESCASC
Precipitaciones de 06:00 a 12:00 en mm
DESCASC
Precipitaciones de 12:00 a 18:00 en mm
DESCASC
Precipitaciones de 18:00 a 24:00 en mm
DESCASC
08-08-2019 28.1 (17:10) 18.3 (00:00) 23.2 10.83 (13:10) 7.5 (00:10) 0 0 0 0 0
09-08-2019 31.5 (14:10) 19.4 (00:00) 25.4 12.22 (12:50) 8.61 (11:50) 0 0 0 0 0
16-08-2019 40.6 (17:10) 24.3 (00:00) 32.4 15 (12:30) 10.28 (10:40) 0 0 0 0 0
07-08-2019 29.8 (12:20) 18 (00:00) 23.9 15 (14:40) 10.28 (15:00) 0 0 0 0 0
15-08-2019 35.2 (16:20) 25.4 (00:00) 30.3 15.28 (11:00) 10.83 (22:20) 0 0 0 0 0
17-08-2019 41.1 (12:50) 28.6 (00:00) 34.8 17.5 (04:40) 10.83 (04:20) 0 0 0 0 0
19-08-2019 36.9 (15:30) 22.2 (00:00) 29.6 16.39 (04:50) 10.83 (04:40) 0 0 0 0 0
02-08-2019 28.1 (15:30) 18.3 (00:00) 23.2 15.56 (13:30) 10.83 (14:30) 0 0 0 0 0
23-08-2019 39.2 (16:40) 20.1 (00:00) 29.7 16.11 (06:20) 11.11 (06:10) 0 0 0 0 0
01-08-2019 27.4 (15:00) 16.2 (00:00) 21.8 16.67 (16:20) 11.11 (13:10) 0 0 0 0 0
14-08-2019 31.3 (15:00) 21.1 (00:00) 26.2 16.67 (14:20) 11.39 (14:00) 0 0 0 0 0
03-08-2019 27.7 (16:50) 16.8 (00:00) 22.3 15.83 (15:40) 11.67 (16:20) 0 0 0 0 0
20-08-2019 31.2 (15:20) 19.5 (00:00) 25.4 17.5 (11:30) 11.67 (11:40) 0 0 0 0 0
10-08-2019 30.3 (17:20) 24.2 (00:00) 27.3 16.67 (13:10) 12.22 (13:50) 0 0 0 0 0
18-08-2019 40.5 (14:20) 30.7 (00:00) 35.6 18.06 (02:20) 12.22 (04:50) 0 0 0 0 0
22-08-2019 36.1 (13:50) 23.4 (00:00) 29.7 16.94 (01:20) 12.22 (03:30) 0 0 0 0 0
04-08-2019 27.4 (13:40) 16.8 (00:00) 22.1 18.33 (17:00) 12.5 (16:10) 0 0 0 0 0
05-08-2019 30.1 (15:20) 19.9 (00:00) 25 20.28 (23:40) 12.5 (23:50) 0 0 0 0 0
06-08-2019 30.2 (15:50) 18.9 (00:00) 24.6 19.17 (01:50) 12.78 (01:30) 0 0 0 0 0
31-07-2019 27.2 (15:20) 18.5 (00:00) 22.9 19.17 (00:20) 12.78 (00:20) 0 0 0 0 0
13-08-2019 28.6 (13:20) 23.5 (00:00) 26.1 20.28 (10:40) 13.06 (12:20) 0 0 0 0 0
24-08-2019 40 (17:10) 29.9 (00:00) 34.9 18.61 (01:10) 13.33 (02:00) 0 0 0 0 0
27-07-2019 28 (16:50) 20 (00:00) 24 19.44 (18:40) 13.33 (12:00) 0 0 0 0 0
12-08-2019 30 (17:50) 23.6 (00:00) 26.8 20.83 (10:50) 13.61 (10:20) 0 0 0 0 0
29-07-2019 29 (15:30) 17.8 (00:00) 23.4 21.39 (22:00) 13.89 (19:00) 0 0 0 0 0
30-07-2019 25.5 (14:20) 19.4 (00:00) 22.4 21.11 (18:40) 14.44 (14:10) 0 0 0 0 0
21-08-2019 29.1 (11:40) 22.4 (00:00) 25.8 19.17 (15:00) 14.44 (13:40) 0 0 0 0 0
28-07-2019 29.5 (16:20) 19.9 (00:00) 24.7 20 (02:00) 14.72 (02:00) 0 0 0 0 0
26-07-2019 32.3 (12:30) 21.9 (00:00) 27.1 20 (01:30) 14.72 (01:30) 0 0 0 0 0
11-08-2019 29.1 (12:40) 22 (00:00) 25.6 21.11 (05:10) 15.28 (05:10) 0 0 0 0 0

Gráficas

Temp. máximas Temp. mínimas Temp. medias Precipitaciones Rachas de viento máximas Velocidades máximas media en intervalos de 10 minutos

Datos horarios

Fecha y hora oficial Temperatura (ºC) Velocidad del viento (km/h) Dirección del viento Racha (km/h) Dirección de racha Precipitación (mm) Presión (hPa) Tendencia (hPa) Humedad (%)
2019-08-24 23:00:00 29.9 36 Norte 53 Norte 0 -- -- 24
2019-08-24 22:00:00 35 28 Norte 43 Norte 0 -- -- 22
2019-08-24 21:00:00 33.8 30 Norte 43 Norte 0 -- -- 23
2019-08-24 20:00:00 35.8 27 Norte 48 Norte 0 -- -- 21
2019-08-24 19:00:00 36.4 31 Norte 54 Norte 0 -- -- 21
2019-08-24 18:00:00 37.6 21 Nordeste 48 Norte 0 -- -- 23
2019-08-24 17:00:00 39.9 31 Norte 47 Norte 0 -- -- 16
2019-08-24 16:00:00 39.4 26 Norte 48 Norte 0 -- -- 17
2019-08-24 15:00:00 35.6 35 Nordeste 47 Nordeste 0 -- -- 29
2019-08-24 14:00:00 37 31 Nordeste 44 Nordeste 0 -- -- 26
2019-08-24 13:00:00 37.4 32 Nordeste 48 Nordeste 0 -- -- 20
2019-08-24 12:00:00 36.2 30 Nordeste 48 Nordeste 0 -- -- 19
2019-08-24 11:00:00 36.7 22 Nordeste 38 Nordeste 0 -- -- 22
2019-08-24 10:00:00 37.2 28 Norte 39 Norte 0 -- -- 15
2019-08-24 09:00:00 36 21 Norte 35 Norte 0 -- -- 16
2019-08-24 08:00:00 34.7 23 Norte 43 Norte 0 -- -- 16
2019-08-24 07:00:00 33.2 27 Norte 53 Norte 0 -- -- 16
2019-08-24 06:00:00 32.4 29 Norte 43 Norte 0 -- -- 16
2019-08-24 05:00:00 32.2 28 Norte 54 Norte 0 -- -- 15
2019-08-24 04:00:00 31.7 25 Norte 61 Norte 0 -- -- 16
2019-08-24 03:00:00 30.7 43 Norte 63 Norte 0 -- -- 15
2019-08-24 02:00:00 31 48 Norte 67 Nordeste 0 -- -- 17
2019-08-24 01:00:00 31.7 36 Norte 58 Norte 0 -- -- 16
2019-08-24 00:00:00 31.6 36 Norte 53 Norte 0 -- -- 17
2019-08-23 23:00:00 32.7 31 Norte 53 Norte 0 -- -- 16
2019-08-23 22:00:00 32.1 35 Norte 54 Norte 0 -- -- 16
2019-08-23 21:00:00 31.2 31 Norte 49 Norte 0 -- -- 18
2019-08-23 20:00:00 32.2 29 Norte 43 Norte 0 -- -- 17
2019-08-23 19:00:00 34.1 23 Norte 40 Norte 0 -- -- 20
2019-08-23 18:00:00 32 10 Sur 31 Nordeste 0 -- -- 40
2019-08-23 17:00:00 38.3 12 Nordeste 37 Nordeste 0 -- -- 24
2019-08-23 16:00:00 36.2 17 Nordeste 38 Nordeste 0 -- -- 19
2019-08-23 15:00:00 35.6 17 Nordeste 31 Nordeste 0 -- -- 29
2019-08-23 14:00:00 31.5 12 Sur 24 Norte 0 -- -- 41
2019-08-23 13:00:00 35.1 10 Este 39 Norte 0 -- -- 14
2019-08-23 12:00:00 36.5 29 Norte 52 Norte 0 -- -- 11
2019-08-23 11:00:00 35.4 33 Norte 50 Norte 0 -- -- 10
2019-08-23 10:00:00 31.3 21 Nordeste 54 Norte 0 -- -- 12
2019-08-23 09:00:00 33.5 33 Norte 51 Norte 0 -- -- 13
2019-08-23 08:00:00 30.7 36 Norte 51 Norte 0 -- -- 8
2019-08-23 07:00:00 30.2 39 Norte 58 Norte 0 -- -- 9
2019-08-23 06:00:00 29.4 35 Norte 51 Norte 0 -- -- 10
2019-08-23 05:00:00 20.3 5 Oeste 12 Sur 0 -- -- 87
2019-08-23 04:00:00 20.6 7 Sudeste 13 Sur 0 -- -- 86
2019-08-23 03:00:00 21 3 Sudoeste 19 Sur 0 -- -- 84
2019-08-23 02:00:00 22.6 10 Sur 26 Sur 0 -- -- 73
2019-08-23 01:00:00 31.3 13 Norte 42 Norte 0 -- -- 14
2019-08-23 00:00:00 31.3 24 Norte 47 Norte 0 -- -- 12
2019-08-22 23:00:00 31.1 17 Norte 50 Norte 0 -- -- 9
2019-08-22 22:00:00 30.7 24 Norte 50 Norte 0 -- -- 8
2019-08-22 21:00:00 30.6 28 Norte 46 Norte 0 -- -- 8
2019-08-22 20:00:00 29.9 20 Norte 45 Nordeste 0 -- -- 24
2019-08-22 19:00:00 32 26 Norte 41 Norte 0 -- -- 12
2019-08-22 18:00:00 33.8 17 Norte 51 Norte 0 -- -- 13
2019-08-22 17:00:00 33.7 40 Norte 53 Norte 0 -- -- 18
2019-08-22 16:00:00 33.6 39 Nordeste 60 Nordeste 0 -- -- 20
2019-08-22 15:00:00 33.3 35 Nordeste 58 Norte 0 -- -- 32
2019-08-22 14:00:00 34.4 34 Nordeste 49 Nordeste 0 -- -- 29
2019-08-22 13:00:00 34.2 30 Norte 55 Norte 0 -- -- 11
2019-08-22 12:00:00 30 38 Norte 53 Nordeste 0 -- -- 36
2019-08-22 11:00:00 31.6 35 Nordeste 54 Norte 0 -- -- 27
2019-08-22 10:00:00 31.6 34 Norte 49 Norte 0 -- -- 7
2019-08-22 09:00:00 29.6 33 Norte 49 Norte 0 -- -- 6
2019-08-22 08:00:00 27.9 35 Norte 51 Norte 0 -- -- 7
2019-08-22 07:00:00 27.2 36 Norte 54 Norte 0 -- -- 9
2019-08-22 06:00:00 26.8 36 Norte 59 Norte 0 -- -- 9
2019-08-22 05:00:00 25.9 40 Norte 55 Norte 0 -- -- 13
2019-08-22 04:00:00 27.6 34 Norte 59 Norte 0 -- -- 14
2019-08-22 03:00:00 27.7 35 Norte 56 Norte 0 -- -- 17
2019-08-22 02:00:00 28.1 39 Norte 61 Norte 0 -- -- 17
2019-08-22 01:00:00 27.5 34 Norte 59 Norte 0 -- -- 20
2019-08-22 00:00:00 28.2 40 Norte 67 Norte 0 -- -- 19
2019-08-21 23:00:00 27.8 43 Norte 61 Norte 0 -- -- 18
2019-08-21 22:00:00 26.9 42 Norte 65 Norte 0 -- -- 21
2019-08-21 21:00:00 26.1 46 Norte 68 Norte 0 -- -- 37
2019-08-21 20:00:00 26.1 44 Norte 68 Norte 0 -- -- 43
2019-08-21 19:00:00 26.9 45 Norte 63 Norte 0 -- -- 43
2019-08-21 18:00:00 27.2 41 Norte 62 Norte 0 -- -- 50
2019-08-21 17:00:00 27.2 46 Norte 67 Norte 0 -- -- 51
2019-08-21 16:00:00 27.7 44 Norte 63 Norte 0 -- -- 51
2019-08-21 15:00:00 28 50 Norte 69 Norte 0 -- -- 49
2019-08-21 14:00:00 28.2 44 Norte 68 Norte 0 -- -- 49
2019-08-21 13:00:00 28.5 43 Norte 68 Norte 0 -- -- 47
2019-08-21 12:00:00 29.1 41 Norte 66 Norte 0 -- -- 42
2019-08-21 11:00:00 27.4 42 Norte 68 Norte 0 -- -- 42
2019-08-21 10:00:00 26.7 41 Norte 66 Norte 0 -- -- 35
2019-08-21 09:00:00 23.8 35 Norte 65 Norte 0 -- -- 45
2019-08-21 08:00:00 22.4 41 Norte 62 Norte 0 -- -- 49
2019-08-21 07:00:00 23.8 40 Norte 60 Norte 0 -- -- 37
2019-08-21 06:00:00 24.6 37 Norte 58 Norte 0 -- -- 30
2019-08-21 05:00:00 24.1 33 Norte 51 Norte 0 -- -- 37
2019-08-21 04:00:00 25.2 30 Norte 56 Norte 0 -- -- 43
2019-08-21 03:00:00 24.9 33 Norte 55 Norte 0 -- -- 45
2019-08-21 02:00:00 24.7 34 Norte 54 Norte 0 -- -- 43
2019-08-21 01:00:00 24.6 36 Norte 54 Norte 0 -- -- 51
2019-08-21 00:00:00 24 28 Norte 50 Norte 0 -- -- 54
2019-08-20 23:00:00 24.3 28 Norte 50 Norte 0 -- -- 54
2019-08-20 22:00:00 24.2 26 Norte 43 Norte 0 -- -- 55
2019-08-20 21:00:00 24.3 21 Nordeste 43 Nordeste 0 -- -- 54
2019-08-20 20:00:00 24.9 25 Norte 45 Norte 0 -- -- 54
2019-08-20 19:00:00 27.1 28 Nordeste 49 Nordeste 0 -- -- 48
2019-08-20 18:00:00 28.6 33 Nordeste 54 Nordeste 0 -- -- 44
2019-08-20 17:00:00 30.2 32 Norte 53 Norte 0 -- -- 34
2019-08-20 16:00:00 31 34 Nordeste 56 Norte 0 -- -- 29
2019-08-20 15:00:00 30.7 35 Norte 58 Nordeste 0 -- -- 36
2019-08-20 14:00:00 30.7 35 Norte 57 Nordeste 0 -- -- 38
2019-08-20 13:00:00 29.7 38 Norte 59 Nordeste 0 -- -- 44
2019-08-20 12:00:00 29 36 Norte 63 Norte 0 -- -- 45
2019-08-20 11:00:00 28.3 35 Norte 54 Norte 0 -- -- 42
2019-08-20 10:00:00 26.6 33 Norte 50 Nordeste 0 -- -- 43
2019-08-20 09:00:00 25.8 30 Norte 50 Norte 0 -- -- 41
2019-08-20 08:00:00 24.4 25 Norte 42 Norte 0 -- -- 32
2019-08-20 07:00:00 23.4 19 Norte 39 Nordeste 0 -- -- 31
2019-08-20 06:00:00 19.7 26 Nordeste 45 Nordeste 0 -- -- 72
2019-08-20 05:00:00 19.6 33 Nordeste 54 Nordeste 0 -- -- 73
2019-08-20 04:00:00 20.3 28 Nordeste 51 Norte 0 -- -- 69
2019-08-20 03:00:00 23.5 10 Nordeste 39 Norte 0 -- -- 50
2019-08-20 02:00:00 27.1 23 Norte 40 Norte 0 -- -- 17
2019-08-20 01:00:00 25.9 24 Norte 40 Nordeste 0 -- -- 17
2019-08-20 00:00:00 27 23 Nordeste 33 Nordeste 0 -- -- 24
2019-08-19 23:00:00 22.3 24 Nordeste 35 Nordeste 0 -- -- 66
2019-08-19 22:00:00 23.4 25 Nordeste 37 Nordeste 0 -- -- 61
2019-08-19 21:00:00 28.8 28 Norte 42 Norte 0 -- -- 22
2019-08-19 20:00:00 25.5 28 Nordeste 40 Nordeste 0 -- -- 60
2019-08-19 19:00:00 29 27 Nordeste 38 Nordeste 0 -- -- 50
2019-08-19 18:00:00 30.8 30 Nordeste 44 Nordeste 0 -- -- 45
2019-08-19 17:00:00 35 35 Nordeste 49 Norte 0 -- -- 30
2019-08-19 16:00:00 35.8 36 Nordeste 49 Norte 0 -- -- 17
2019-08-19 15:00:00 36 32 Norte 48 Norte 0 -- -- 17
2019-08-19 14:00:00 36.4 32 Norte 51 Norte 0 -- -- 15
2019-08-19 13:00:00 35.2 33 Norte 53 Norte 0 -- -- 17
2019-08-19 12:00:00 34.6 32 Norte 50 Nordeste 0 -- -- 16
2019-08-19 11:00:00 34.2 32 Nordeste 48 Norte 0 -- -- 15
2019-08-19 10:00:00 31.9 31 Nordeste 43 Nordeste 0 -- -- 17
2019-08-19 09:00:00 30.2 32 Nordeste 53 Norte 0 -- -- 16
2019-08-19 08:00:00 29.8 32 Norte 53 Norte 0 -- -- 13
2019-08-19 07:00:00 28.9 36 Nordeste 57 Norte 0 -- -- 13
2019-08-19 06:00:00 30.5 31 Norte 48 Norte 0 -- -- 14
2019-08-19 05:00:00 31.7 32 Norte 59 Norte 0 -- -- 14
2019-08-19 04:00:00 31.4 34 Norte 50 Norte 0 -- -- 14
2019-08-19 03:00:00 32.2 33 Norte 57 Norte 0 -- -- 13
2019-08-19 02:00:00 32.4 35 Norte 53 Norte 0 -- -- 13
2019-08-19 01:00:00 31.5 34 Norte 58 Norte 0 -- -- 13
2019-08-19 00:00:00 31.8 35 Norte 51 Norte 0 -- -- 13
2019-08-18 23:00:00 33.2 31 Norte 53 Norte 0 -- -- 13
2019-08-18 22:00:00 31.7 39 Norte 53 Norte 0 -- -- 15
2019-08-18 21:00:00 34.2 30 Norte 50 Norte 0 -- -- 13
2019-08-18 20:00:00 35.4 30 Norte 56 Norte 0 -- -- 12
2019-08-18 19:00:00 36.8 32 Norte 49 Norte 0 -- -- 12
2019-08-18 18:00:00 38 31 Norte 50 Nordeste 0 -- -- 13
2019-08-18 17:00:00 39 31 Norte 51 Norte 0 -- -- 13
2019-08-18 16:00:00 38.9 30 Norte 53 Norte 0 -- -- 13
2019-08-18 15:00:00 39.7 33 Norte 50 Norte 0 -- -- 14
2019-08-18 14:00:00 39.7 31 Norte 48 Norte 0 -- -- 12
2019-08-18 13:00:00 38.6 32 Norte 50 Nordeste 0 -- -- 14
2019-08-18 12:00:00 37.4 35 Norte 55 Norte 0 -- -- 15
2019-08-18 11:00:00 37.5 28 Norte 49 Norte 0 -- -- 14
2019-08-18 10:00:00 34.5 35 Norte 51 Norte 0 -- -- 18
2019-08-18 09:00:00 31.4 36 Norte 52 Norte 0 -- -- 23
2019-08-18 08:00:00 31.3 33 Norte 47 Norte 0 -- -- 21
2019-08-18 07:00:00 32.5 33 Norte 55 Norte 0 -- -- 13
2019-08-18 06:00:00 32 40 Norte 59 Norte 0 -- -- 18
2019-08-18 05:00:00 31.8 42 Norte 62 Norte 0 -- -- 20
2019-08-18 04:00:00 31.1 40 Norte 61 Norte 0 -- -- 23
2019-08-18 03:00:00 31.5 41 Norte 65 Norte 0 -- -- 22
2019-08-18 02:00:00 31.8 39 Norte 57 Norte 0 -- -- 21
2019-08-18 01:00:00 32.8 37 Norte 54 Norte 0 -- -- 19
2019-08-18 00:00:00 32.8 34 Norte 55 Norte 0 -- -- 17
2019-08-17 23:00:00 33.3 32 Norte 57 Norte 0 -- -- 17
2019-08-17 22:00:00 33.7 35 Norte 57 Norte 0 -- -- 16
2019-08-17 21:00:00 34 35 Norte 51 Norte 0 -- -- 17
2019-08-17 20:00:00 34.7 37 Norte 58 Norte 0 -- -- 17
2019-08-17 19:00:00 37.2 30 Norte 48 Norte 0 -- -- 16
2019-08-17 18:00:00 38.8 31 Norte 48 Norte 0 -- -- 15
2019-08-17 17:00:00 38.3 32 Nordeste 45 Norte 0 -- -- 21
2019-08-17 16:00:00 37.8 27 Nordeste 42 Norte 0 -- -- 33
2019-08-17 15:00:00 40.8 28 Norte 47 Nordeste 0 -- -- 17
2019-08-17 14:00:00 39.7 30 Norte 50 Norte 0 -- -- 16
2019-08-17 13:00:00 39.4 33 Norte 46 Norte 0 -- -- 16
2019-08-17 12:00:00 39.8 29 Norte 47 Norte 0 -- -- 15
2019-08-17 11:00:00 38.9 25 Norte 42 Norte 0 -- -- 15
2019-08-17 10:00:00 37.5 27 Norte 44 Norte 0 -- -- 14
2019-08-17 09:00:00 35.6 23 Norte 43 Norte 0 -- -- 15
2019-08-17 08:00:00 34.2 29 Norte 48 Norte 0 -- -- 16
2019-08-17 07:00:00 34.1 30 Norte 53 Norte 0 -- -- 17
2019-08-17 06:00:00 32.8 30 Norte 55 Norte 0 -- -- 19
2019-08-17 05:00:00 32.4 32 Norte 63 Norte 0 -- -- 21
2019-08-17 04:00:00 31 31 Norte 50 Nordeste 0 -- -- 24
2019-08-17 03:00:00 32.4 36 Norte 53 Norte 0 -- -- 20
2019-08-17 02:00:00 31.6 24 Nordeste 50 Norte 0 -- -- 30
2019-08-17 01:00:00 33.2 35 Norte 48 Nordeste 0 -- -- 18
2019-08-17 00:00:00 35.2 22 Norte 37 Norte 0 -- -- 15
2019-08-16 23:00:00 35.5 28 Norte 45 Norte 0 -- -- 17
2019-08-16 22:00:00 36.2 25 Norte 35 Norte 0 -- -- 16
2019-08-16 21:00:00 27 17 Norte 23 Nordeste 0 -- -- 56
2019-08-16 20:00:00 28.1 9 Este 17 Nordeste 0 -- -- 57
2019-08-16 19:00:00 29.4 4 Sudeste 22 Sur 0 -- -- 53
2019-08-16 18:00:00 35.7 16 Sur 33 Nordeste 0 -- -- 39
2019-08-16 17:00:00 40.2 21 Nordeste 32 Nordeste 0 -- -- 21
2019-08-16 16:00:00 37.2 22 Nordeste 39 Nordeste 0 -- -- 33
2019-08-16 15:00:00 37.5 15 Oeste 44 Nordeste 0 -- -- 32
2019-08-16 14:00:00 37.5 24 Nordeste 49 Nordeste 0 -- -- 24
2019-08-16 13:00:00 36.7 27 Nordeste 54 Nordeste 0 -- -- 27
2019-08-16 12:00:00 36.7 22 Norte 46 Norte 0 -- -- 24
2019-08-16 11:00:00 34.4 32 Norte 53 Norte 0 -- -- 24
2019-08-16 10:00:00 27.9 9 Sur 45 Norte 0 -- -- 50
2019-08-16 09:00:00 25 10 Nordeste 26 Norte 0 -- -- 55
2019-08-16 08:00:00 33.9 22 Norte 33 Norte 0 -- -- 15
2019-08-16 07:00:00 30.1 12 Nordeste 30 Norte 0 -- -- 19
2019-08-16 06:00:00 27.9 6 Este 40 Norte 0 -- -- 36
2019-08-16 05:00:00 32 28 Norte 44 Norte 0 -- -- 20
2019-08-16 04:00:00 32.2 22 Norte 44 Norte 0 -- -- 21
2019-08-16 03:00:00 30.5 25 Norte 43 Norte 0 -- -- 24
2019-08-16 02:00:00 30.1 32 Norte 45 Norte 0 -- -- 23
2019-08-16 01:00:00 30.9 21 Norte 41 Norte 0 -- -- 24
2019-08-16 00:00:00 31.1 26 Norte 47 Norte 0 -- -- 21
2019-08-15 23:00:00 28.6 35 Norte 54 Norte 0 -- -- 28
2019-08-15 22:00:00 28.2 38 Norte 54 Norte 0 -- -- 32
2019-08-15 21:00:00 28.3 34 Norte 50 Norte 0 -- -- 30
2019-08-15 20:00:00 26.6 10 Sur 18 Este 0 -- -- 56
2019-08-15 19:00:00 29 17 Nordeste 37 Nordeste 0 -- -- 49
2019-08-15 18:00:00 34.9 23 Norte 36 Norte 0 -- -- 22
2019-08-15 17:00:00 32.3 25 Nordeste 39 Nordeste 0 -- -- 43
2019-08-15 16:00:00 34.5 25 Nordeste 39 Nordeste 0 -- -- 33
2019-08-15 15:00:00 34.1 27 Nordeste 44 Norte 0 -- -- 36
2019-08-15 14:00:00 33.9 31 Norte 46 Norte 0 -- -- 31
2019-08-15 13:00:00 30.3 33 Norte 48 Nordeste 0 -- -- 43
2019-08-15 12:00:00 30.8 32 Nordeste 50 Nordeste 0 -- -- 37
2019-08-15 11:00:00 30.3 35 Norte 55 Norte 0 -- -- 28
2019-08-15 10:00:00 28.4 32 Norte 51 Norte 0 -- -- 28
2019-08-15 09:00:00 26.5 31 Norte 48 Norte 0 -- -- 27
2019-08-15 08:00:00 25.5 29 Norte 44 Norte 0 -- -- 28
2019-08-15 07:00:00 26.6 30 Norte 44 Norte 0 -- -- 26
2019-08-15 06:00:00 26.2 31 Norte 44 Norte 0 -- -- 35
2019-08-15 05:00:00 26.4 28 Norte 47 Norte 0 -- -- 35
2019-08-15 04:00:00 26.2 28 Norte 45 Norte 0 -- -- 36
2019-08-15 03:00:00 26.2 29 Norte 46 Norte 0 -- -- 32
2019-08-15 02:00:00 26.6 31 Norte 50 Norte 0 -- -- 30
2019-08-15 01:00:00 26.4 31 Norte 48 Norte 0 -- -- 33
2019-08-15 00:00:00 26.7 32 Norte 50 Norte 0 -- -- 29
2019-08-14 23:00:00 26.5 33 Norte 48 Norte 0 -- -- 30
2019-08-14 22:00:00 27 33 Norte 47 Norte 0 -- -- 25
2019-08-14 21:00:00 26.8 26 Norte 45 Norte 0 -- -- 21
2019-08-14 20:00:00 27.3 28 Norte 49 Norte 0 -- -- 24
2019-08-14 19:00:00 28.5 35 Norte 56 Norte 0 -- -- 24
2019-08-14 18:00:00 29.3 36 Norte 54 Nordeste 0 -- -- 26
2019-08-14 17:00:00 30.3 37 Nordeste 53 Nordeste 0 -- -- 27
2019-08-14 16:00:00 30.8 32 Nordeste 53 Nordeste 0 -- -- 26
2019-08-14 15:00:00 31.3 34 Norte 60 Norte 0 -- -- 25
2019-08-14 14:00:00 30.6 41 Norte 54 Norte 0 -- -- 23
2019-08-14 13:00:00 30.1 35 Nordeste 56 Nordeste 0 -- -- 28
2019-08-14 12:00:00 28.8 35 Norte 54 Norte 0 -- -- 30
2019-08-14 11:00:00 28 33 Norte 49 Norte 0 -- -- 27
2019-08-14 10:00:00 27.4 31 Norte 48 Norte 0 -- -- 22
2019-08-14 09:00:00 25.7 31 Norte 44 Norte 0 -- -- 23
2019-08-14 08:00:00 24.7 31 Norte 50 Norte 0 -- -- 23
2019-08-14 07:00:00 23.9 36 Norte 48 Norte 0 -- -- 23
2019-08-14 06:00:00 23.9 31 Norte 49 Norte 0 -- -- 23
2019-08-14 05:00:00 24.1 31 Norte 52 Norte 0 -- -- 22
2019-08-14 04:00:00 24.8 36 Norte 54 Norte 0 -- -- 21
2019-08-14 03:00:00 23.8 36 Norte 54 Norte 0 -- -- 22
2019-08-14 02:00:00 23.2 33 Norte 53 Norte 0 -- -- 26
2019-08-14 01:00:00 21.1 32 Norte 46 Norte 0 -- -- 48
2019-08-14 00:00:00 23.5 25 Norte 49 Norte 0 -- -- 22
2019-08-13 23:00:00 24.5 34 Norte 46 Norte 0 -- -- 15
2019-08-13 22:00:00 23.9 22 Norte 46 Norte 0 -- -- 22
2019-08-13 21:00:00 24.6 27 Nordeste 46 Norte 0 -- -- 31
2019-08-13 20:00:00 25.3 29 Norte 56 Norte 0 -- -- 29
2019-08-13 19:00:00 25.4 35 Norte 56 Norte 0 -- -- 45
2019-08-13 18:00:00 26.8 36 Norte 61 Nordeste 0 -- -- 43
2019-08-13 17:00:00 27.7 37 Nordeste 66 Norte 0 -- -- 44
2019-08-13 16:00:00 27.9 43 Norte 66 Norte 0 -- -- 37
2019-08-13 15:00:00 28.2 45 Nordeste 60 Norte 0 -- -- 37
2019-08-13 14:00:00 28.3 40 Norte 62 Norte 0 -- -- 32
2019-08-13 13:00:00 28.4 45 Norte 66 Norte 0 -- -- 29
2019-08-13 12:00:00 28 44 Norte 67 Norte 0 -- -- 28
2019-08-13 11:00:00 27.4 42 Norte 73 Norte 0 -- -- 20
2019-08-13 10:00:00 26.2 42 Norte 66 Norte 0 -- -- 22
2019-08-13 09:00:00 25.4 41 Norte 68 Norte 0 -- -- 18
2019-08-13 08:00:00 24 40 Norte 60 Norte 0 -- -- 19
2019-08-13 07:00:00 25.5 37 Norte 67 Norte 0 -- -- 13
2019-08-13 06:00:00 24.7 38 Norte 60 Norte 0 -- -- 16
2019-08-13 05:00:00 24 42 Norte 60 Norte 0 -- -- 23
2019-08-13 04:00:00 24 32 Norte 52 Norte 0 -- -- 23
2019-08-13 03:00:00 27.2 33 Norte 60 Norte 0 -- -- 11
2019-08-13 02:00:00 27.3 37 Norte 65 Norte 0 -- -- 12
2019-08-13 01:00:00 26.3 39 Norte 63 Norte 0 -- -- 12
2019-08-13 00:00:00 25.2 40 Norte 65 Norte 0 -- -- 14
2019-08-12 23:00:00 25 37 Norte 59 Norte 0 -- -- 18
2019-08-12 22:00:00 25.2 44 Norte 65 Norte 0 -- -- 17
2019-08-12 21:00:00 25 39 Norte 66 Norte 0 -- -- 19
2019-08-12 20:00:00 27.3 34 Norte 60 Norte 0 -- -- 18
2019-08-12 19:00:00 27.5 39 Norte 66 Nordeste 0 -- -- 30
2019-08-12 18:00:00 29.9 36 Norte 59 Norte 0 -- -- 20
2019-08-12 17:00:00 29.6 40 Norte 59 Norte 0 -- -- 26
2019-08-12 16:00:00 29.1 37 Norte 65 Nordeste 0 -- -- 39
2019-08-12 15:00:00 29.2 43 Norte 64 Nordeste 0 -- -- 39
2019-08-12 14:00:00 29 45 Norte 70 Norte 0 -- -- 31
2019-08-12 13:00:00 28.3 45 Norte 69 Norte 0 -- -- 35
2019-08-12 12:00:00 27.6 45 Norte 69 Norte 0 -- -- 37
2019-08-12 11:00:00 26.9 46 Norte 75 Norte 0 -- -- 38
2019-08-12 10:00:00 25.8 46 Norte 70 Norte 0 -- -- 40
2019-08-12 09:00:00 25 43 Norte 68 Norte 0 -- -- 40
2019-08-12 08:00:00 24.1 41 Norte 68 Norte 0 -- -- 42
2019-08-12 07:00:00 23.8 42 Norte 66 Norte 0 -- -- 43
2019-08-12 06:00:00 24.2 44 Norte 70 Norte 0 -- -- 40
2019-08-12 05:00:00 24.3 41 Norte 61 Norte 0 -- -- 37
2019-08-12 04:00:00 24.1 37 Norte 69 Norte 0 -- -- 38
2019-08-12 03:00:00 24.3 41 Norte 72 Norte 0 -- -- 31
2019-08-12 02:00:00 24 42 Norte 67 Norte 0 -- -- 31
2019-08-12 01:00:00 24.2 47 Norte 72 Norte 0 -- -- 27
2019-08-12 00:00:00 24.6 48 Norte 75 Norte 0 -- -- 22
2019-08-11 23:00:00 24.5 49 Norte 69 Norte 0 -- -- 27
2019-08-11 22:00:00 22.9 37 Norte 61 Norte 0 -- -- 42
2019-08-11 21:00:00 22.6 42 Norte 66 Norte 0 -- -- 54
2019-08-11 20:00:00 23.2 39 Norte 59 Nordeste 0 -- -- 59
2019-08-11 19:00:00 26.4 39 Norte 67 Norte 0 -- -- 45
2019-08-11 18:00:00 25.9 45 Norte 69 Norte 0 -- -- 48
2019-08-11 17:00:00 26.6 49 Norte 74 Norte 0 -- -- 45
2019-08-11 16:00:00 27 51 Norte 69 Norte 0 -- -- 53
2019-08-11 15:00:00 28.2 40 Norte 66 Norte 0 -- -- 54
2019-08-11 14:00:00 28.1 44 Norte 64 Norte 0 -- -- 54
2019-08-11 13:00:00 28.3 39 Norte 59 Norte 0 -- -- 53
2019-08-11 12:00:00 27.3 37 Norte 66 Norte 0 -- -- 56
2019-08-11 11:00:00 24.8 48 Norte 68 Norte 0 -- -- 65
2019-08-11 10:00:00 23.9 47 Norte 74 Norte 0 -- -- 69
2019-08-11 09:00:00 23.5 45 Norte 66 Norte 0 -- -- 70
2019-08-11 08:00:00 22.7 41 Norte 59 Norte 0 -- -- 72
2019-08-11 07:00:00 23 37 Norte 60 Norte 0 -- -- 71
2019-08-11 06:00:00 23.1 47 Norte 76 Norte 0 -- -- 73
2019-08-11 05:00:00 22.4 51 Norte 72 Norte 0 -- -- 75
2019-08-11 04:00:00 22.4 47 Norte 75 Norte 0 -- -- 76
2019-08-11 03:00:00 22.4 53 Norte 71 Norte 0 -- -- 77
2019-08-11 02:00:00 23.1 42 Nordeste 66 Norte 0 -- -- 72
2019-08-11 01:00:00 24.1 37 Norte 61 Norte 0 -- -- 60
2019-08-11 00:00:00 24.9 36 Norte 51 Nordeste 0 -- -- 54
2019-08-10 23:00:00 24.8 31 Nordeste 49 Nordeste 0 -- -- 54
2019-08-10 22:00:00 26.8 30 Norte 45 Nordeste 0 -- -- 41
2019-08-10 21:00:00 26.8 28 Norte 51 Norte 0 -- -- 44
2019-08-10 20:00:00 28.3 31 Norte 47 Norte 0 -- -- 41
2019-08-10 19:00:00 27.8 33 Norte 50 Nordeste 0 -- -- 52
2019-08-10 18:00:00 29.4 35 Nordeste 49 Nordeste 0 -- -- 48
2019-08-10 17:00:00 29.6 32 Nordeste 50 Norte 0 -- -- 51
2019-08-10 16:00:00 29.3 35 Norte 56 Norte 0 -- -- 52
2019-08-10 15:00:00 29 41 Norte 59 Nordeste 0 -- -- 54
2019-08-10 14:00:00 28.3 40 Nordeste 60 Nordeste 0 -- -- 58
2019-08-10 13:00:00 29.3 34 Nordeste 54 Nordeste 0 -- -- 54
2019-08-10 12:00:00 28.9 35 Nordeste 51 Nordeste 0 -- -- 50
2019-08-10 11:00:00 29.6 32 Nordeste 49 Nordeste 0 -- -- 37
2019-08-10 10:00:00 27.3 37 Norte 54 Norte 0 -- -- 38
2019-08-10 09:00:00 26.3 33 Norte 50 Nordeste 0 -- -- 42
2019-08-10 08:00:00 24.9 34 Nordeste 49 Nordeste 0 -- -- 38
2019-08-10 07:00:00 25.1 33 Nordeste 47 Nordeste 0 -- -- 30
2019-08-10 06:00:00 25.1 35 Nordeste 54 Nordeste 0 -- -- 27
2019-08-10 05:00:00 24.5 39 Nordeste 53 Nordeste 0 -- -- 30
2019-08-10 04:00:00 24.4 35 Nordeste 51 Nordeste 0 -- -- 31
2019-08-10 03:00:00 24.8 32 Norte 52 Nordeste 0 -- -- 33
2019-08-10 02:00:00 25.3 35 Norte 53 Norte 0 -- -- 33
2019-08-10 01:00:00 25.4 33 Norte 45 Norte 0 -- -- 34
2019-08-10 00:00:00 25.7 25 Norte 40 Norte 0 -- -- 32
2019-08-09 23:00:00 22.9 15 Nordeste 23 Nordeste 0 -- -- 57
2019-08-09 22:00:00 23.4 17 Norte 30 Nordeste 0 -- -- 53
2019-08-09 21:00:00 23.5 23 Nordeste 37 Nordeste 0 -- -- 59
2019-08-09 20:00:00 24.7 24 Nordeste 35 Nordeste 0 -- -- 62
2019-08-09 19:00:00 26.5 20 Nordeste 31 Nordeste 0 -- -- 62
2019-08-09 18:00:00 28.2 21 Nordeste 38 Nordeste 0 -- -- 57
2019-08-09 17:00:00 29.9 21 Nordeste 34 Nordeste 0 -- -- 52
2019-08-09 16:00:00 29.4 24 Nordeste 33 Nordeste 0 -- -- 53
2019-08-09 15:00:00 30.1 23 Nordeste 34 Nordeste 0 -- -- 51
2019-08-09 14:00:00 30.3 17 Norte 40 Nordeste 0 -- -- 45
2019-08-09 13:00:00 26.3 29 Nordeste 44 Nordeste 0 -- -- 62
2019-08-09 12:00:00 25.4 29 Nordeste 42 Nordeste 0 -- -- 65
2019-08-09 11:00:00 26.1 21 Nordeste 36 Nordeste 0 -- -- 61
2019-08-09 10:00:00 27.4 11 Nordeste 39 Norte 0 -- -- 45
2019-08-09 09:00:00 21.5 6 Oeste 20 Norte 0 -- -- 70
2019-08-09 08:00:00 19.6 3 Noroeste 9 Nordeste 0 -- -- 76
2019-08-09 07:00:00 20 6 Nordeste 19 Norte 0 -- -- 70
2019-08-09 06:00:00 20.2 13 Norte 21 Norte 0 -- -- 70
2019-08-09 05:00:00 19.7 11 Norte 15 Norte 0 -- -- 74
2019-08-09 04:00:00 19.7 12 Nordeste 18 Nordeste 0 -- -- 79
2019-08-09 03:00:00 19.7 11 Nordeste 16 Nordeste 0 -- -- 81
2019-08-09 02:00:00 20.1 0 Calma 10 Nordeste 0 -- -- 80
2019-08-09 01:00:00 20.3 9 Nordeste 12 Nordeste 0 -- -- 82
2019-08-09 00:00:00 20.7 9 Nordeste 17 Nordeste 0 -- -- 81
2019-08-08 23:00:00 21 14 Nordeste 21 Nordeste 0 -- -- 81
2019-08-08 22:00:00 21.3 6 Nordeste 16 Nordeste 0 -- -- 80
2019-08-08 21:00:00 21.9 10 Nordeste 24 Nordeste 0 -- -- 77
2019-08-08 20:00:00 23.6 15 Nordeste 26 Nordeste 0 -- -- 71
2019-08-08 19:00:00 25.8 17 Nordeste 27 Nordeste 0 -- -- 64
2019-08-08 18:00:00 27.6 18 Nordeste 29 Nordeste 0 -- -- 58
2019-08-08 17:00:00 27.9 19 Nordeste 36 Nordeste 0 -- -- 57
2019-08-08 16:00:00 27.7 23 Nordeste 38 Nordeste 0 -- -- 58
2019-08-08 15:00:00 26.4 26 Nordeste 36 Nordeste 0 -- -- 62
2019-08-08 14:00:00 27.1 24 Nordeste 39 Nordeste 0 -- -- 60
2019-08-08 13:00:00 27.2 27 Nordeste 38 Nordeste 0 -- -- 59
2019-08-08 12:00:00 26.8 20 Nordeste 31 Nordeste 0 -- -- 60
2019-08-08 11:00:00 26.4 12 Este 19 Nordeste 0 -- -- 59
2019-08-08 10:00:00 22.7 4 Norte 12 Sur 0 -- -- 69
2019-08-08 09:00:00 20.5 6 Sur 11 Sur 0 -- -- 81
2019-08-08 08:00:00 18.5 3 Norte 14 Nordeste 0 -- -- 72
2019-08-08 07:00:00 18.8 10 Nordeste 26 Nordeste 0 -- -- 77
2019-08-08 06:00:00 19.3 19 Nordeste 36 Nordeste 0 -- -- 74
2019-08-08 05:00:00 19.7 16 Nordeste 27 Nordeste 0 -- -- 72
2019-08-08 04:00:00 19.8 17 Nordeste 26 Nordeste 0 -- -- 64
2019-08-08 03:00:00 22.8 14 Nordeste 37 Nordeste 0 -- -- 56
2019-08-08 02:00:00 19.8 2 Sudeste 27 Nordeste 0 -- -- 74
2019-08-08 01:00:00 20.2 15 Norte 38 Norte 0 -- -- 75
2019-08-08 00:00:00 20.2 31 Norte 47 Norte 0 -- -- 77
2019-08-07 23:00:00 20.7 32 Norte 46 Norte 0 -- -- 75
2019-08-07 22:00:00 21.2 22 Nordeste 35 Nordeste 0 -- -- 74
2019-08-07 21:00:00 22.8 8 Nordeste 32 Nordeste 0 -- -- 66
2019-08-07 20:00:00 24.5 19 Nordeste 40 Norte 0 -- -- 61
2019-08-07 19:00:00 25 29 Nordeste 45 Nordeste 0 -- -- 61
2019-08-07 18:00:00 25.9 31 Nordeste 48 Nordeste 0 -- -- 59
2019-08-07 17:00:00 26.3 32 Nordeste 50 Norte 0 -- -- 58
2019-08-07 16:00:00 26.8 36 Nordeste 51 Nordeste 0 -- -- 56
2019-08-07 15:00:00 27.1 37 Nordeste 54 Nordeste 0 -- -- 57
2019-08-07 14:00:00 27.8 34 Nordeste 49 Nordeste 0 -- -- 52
2019-08-07 13:00:00 27.6 32 Nordeste 48 Nordeste 0 -- -- 53
2019-08-07 12:00:00 28.1 24 Norte 40 Norte 0 -- -- 47
2019-08-07 11:00:00 26 26 Norte 41 Nordeste 0 -- -- 56
2019-08-07 10:00:00 23.6 18 Norte 37 Norte 0 -- -- 62
2019-08-07 09:00:00 21 3 Sudoeste 26 Nordeste 0 -- -- 72
2019-08-07 08:00:00 18.6 6 Este 17 Nordeste 0 -- -- 75
2019-08-07 07:00:00 18 2 Nordeste 5 Oeste 0 -- -- 80
2019-08-07 06:00:00 18.4 0 Calma 14 Sudoeste 0 -- -- 79
2019-08-07 05:00:00 18.8 4 Sudoeste 10 Sudoeste 0 -- -- 79
2019-08-07 04:00:00 19.4 3 Sudoeste 11 Este 0 -- -- 75
2019-08-07 03:00:00 21 5 Noroeste 44 Norte 0 -- -- 66
2019-08-07 02:00:00 21.6 30 Norte 48 Norte 0 -- -- 54
2019-08-07 01:00:00 23.4 31 Norte 44 Norte 0 -- -- 38
2019-08-07 00:00:00 22.7 27 Norte 50 Norte 0 -- -- 43
2019-08-06 23:00:00 23.6 31 Norte 51 Norte 0 -- -- 35
2019-08-06 22:00:00 23 31 Norte 47 Norte 0 -- -- 45
2019-08-06 21:00:00 22.8 5 Sur 18 Sur 0 -- -- 63
2019-08-06 20:00:00 24.7 10 Sur 42 Norte 0 -- -- 60
2019-08-06 19:00:00 26 27 Norte 45 Norte 0 -- -- 51
2019-08-06 18:00:00 27.8 28 Norte 54 Norte 0 -- -- 47
2019-08-06 17:00:00 29.6 29 Norte 50 Norte 0 -- -- 44
2019-08-06 16:00:00 29.7 36 Norte 54 Norte 0 -- -- 44
2019-08-06 15:00:00 29.9 30 Norte 49 Norte 0 -- -- 45
2019-08-06 14:00:00 30.1 31 Norte 46 Norte 0 -- -- 44
2019-08-06 13:00:00 29.3 31 Norte 48 Norte 0 -- -- 45
2019-08-06 12:00:00 27.8 33 Nordeste 46 Nordeste 0 -- -- 49
2019-08-06 11:00:00 26.2 8 Sudoeste 30 Este 0 -- -- 51
2019-08-06 10:00:00 23.7 7 Oeste 23 Nordeste 0 -- -- 59
2019-08-06 09:00:00 21.9 9 Noroeste 41 Nordeste 0 -- -- 66
2019-08-06 08:00:00 18.9 6 Sudoeste 26 Nordeste 0 -- -- 73
2019-08-06 07:00:00 20.3 7 Norte 44 Norte 0 -- -- 64
2019-08-06 06:00:00 21.6 28 Norte 58 Norte 0 -- -- 57
2019-08-06 05:00:00 21.6 35 Norte 60 Norte 0 -- -- 57
2019-08-06 04:00:00 21.3 43 Norte 63 Norte 0 -- -- 62
2019-08-06 03:00:00 21.4 40 Norte 63 Norte 0 -- -- 62
2019-08-06 02:00:00 21.5 42 Norte 69 Norte 0 -- -- 65
2019-08-06 01:00:00 23.1 43 Norte 65 Norte 0 -- -- 52
2019-08-06 00:00:00 23.7 41 Norte 73 Norte 0 -- -- 47
2019-08-05 23:00:00 24.4 39 Norte 62 Norte 0 -- -- 44
2019-08-05 22:00:00 23.9 30 Norte 57 Norte 0 -- -- 47
2019-08-05 21:00:00 23.7 33 Norte 52 Norte 0 -- -- 53
2019-08-05 20:00:00 25.4 35 Norte 57 Norte 0 -- -- 46
2019-08-05 19:00:00 27.4 28 Norte 51 Norte 0 -- -- 47
2019-08-05 18:00:00 28.6 32 Norte 47 Norte 0 -- -- 40
2019-08-05 17:00:00 28.8 29 Norte 51 Norte 0 -- -- 46
2019-08-05 16:00:00 29.1 33 Norte 52 Norte 0 -- -- 40
2019-08-05 15:00:00 29.4 31 Norte 49 Norte 0 -- -- 34
2019-08-05 14:00:00 28.6 34 Norte 53 Norte 0 -- -- 39
2019-08-05 13:00:00 26.9 36 Norte 59 Nordeste 0 -- -- 50
2019-08-05 12:00:00 28 33 Norte 55 Norte 0 -- -- 44
2019-08-05 11:00:00 27.4 31 Norte 53 Norte 0 -- -- 42
2019-08-05 10:00:00 24.6 31 Norte 49 Norte 0 -- -- 52
2019-08-05 09:00:00 23 28 Norte 45 Norte 0 -- -- 56
2019-08-05 08:00:00 21.7 23 Norte 55 Norte 0 -- -- 54
2019-08-05 07:00:00 20.6 32 Norte 56 Norte 0 -- -- 65
2019-08-05 06:00:00 20.5 32 Norte 49 Norte 0 -- -- 65
2019-08-05 05:00:00 20.3 27 Norte 43 Nordeste 0 -- -- 71
2019-08-05 04:00:00 20.7 23 Norte 52 Norte 0 -- -- 64
2019-08-05 03:00:00 20.3 34 Norte 59 Norte 0 -- -- 65
2019-08-05 02:00:00 20.3 32 Norte 54 Norte 0 -- -- 67
2019-08-05 01:00:00 20 32 Norte 59 Norte 0 -- -- 71
2019-08-05 00:00:00 20 31 Norte 52 Norte 0 -- -- 73
2019-08-04 23:00:00 20.8 36 Norte 51 Norte 0 -- -- 65
2019-08-04 22:00:00 20.6 31 Norte 52 Norte 0 -- -- 64
2019-08-04 21:00:00 20.6 34 Norte 53 Norte 0 -- -- 66
2019-08-04 20:00:00 22.1 36 Norte 57 Norte 0 -- -- 65
2019-08-04 19:00:00 23.8 37 Norte 60 Nordeste 0 -- -- 58
2019-08-04 18:00:00 25.1 41 Norte 62 Nordeste 0 -- -- 55
2019-08-04 17:00:00 25.8 44 Norte 66 Norte 0 -- -- 52
2019-08-04 16:00:00 26.6 41 Norte 63 Nordeste 0 -- -- 49
2019-08-04 15:00:00 27.2 40 Norte 61 Norte 0 -- -- 50
2019-08-04 14:00:00 27 39 Norte 58 Norte 0 -- -- 48
2019-08-04 13:00:00 26.2 39 Norte 59 Norte 0 -- -- 49
2019-08-04 12:00:00 25.6 38 Norte 55 Norte 0 -- -- 50
2019-08-04 11:00:00 24.4 38 Nordeste 65 Norte 0 -- -- 55
2019-08-04 10:00:00 22.1 42 Norte 59 Norte 0 -- -- 60
2019-08-04 09:00:00 20.8 31 Norte 51 Norte 0 -- -- 65
2019-08-04 08:00:00 19.4 19 Norte 42 Norte 0 -- -- 68
2019-08-04 07:00:00 18.4 19 Norte 33 Norte 0 -- -- 70
2019-08-04 06:00:00 17.1 4 Oeste 27 Norte 0 -- -- 83
2019-08-04 05:00:00 18.1 16 Norte 30 Norte 0 -- -- 71
2019-08-04 04:00:00 17.2 4 Norte 11 Este 0 -- -- 82
2019-08-04 03:00:00 18.4 0 Calma 44 Norte 0 -- -- 76
2019-08-04 02:00:00 19.2 19 Norte 32 Norte 0 -- -- 64
2019-08-04 01:00:00 18.6 0 Calma 27 Norte 0 -- -- 72
2019-08-04 00:00:00 19.9 18 Norte 39 Norte 0 -- -- 62
2019-08-03 23:00:00 20.3 3 Oeste 43 Norte 0 -- -- 66
2019-08-03 22:00:00 20.6 23 Norte 38 Norte 0 -- -- 61
2019-08-03 21:00:00 21.1 25 Nordeste 45 Nordeste 0 -- -- 61
2019-08-03 20:00:00 25.2 25 Norte 46 Norte 0 -- -- 37
2019-08-03 19:00:00 25.5 27 Norte 51 Norte 0 -- -- 49
2019-08-03 18:00:00 26.1 35 Norte 54 Norte 0 -- -- 48
2019-08-03 17:00:00 27.7 33 Norte 57 Norte 0 -- -- 46
2019-08-03 16:00:00 27.4 36 Norte 57 Norte 0 -- -- 47
2019-08-03 15:00:00 26.7 38 Norte 53 Norte 0 -- -- 50
2019-08-03 14:00:00 26.8 34 Norte 49 Nordeste 0 -- -- 51
2019-08-03 13:00:00 26.3 35 Nordeste 50 Nordeste 0 -- -- 53
2019-08-03 12:00:00 26.6 35 Nordeste 47 Nordeste 0 -- -- 52
2019-08-03 11:00:00 25.9 19 Norte 41 Norte 0 -- -- 53
2019-08-03 10:00:00 22.3 6 Sur 12 Sudoeste 0 -- -- 66
2019-08-03 09:00:00 20.3 9 Sur 19 Sur 0 -- -- 75
2019-08-03 08:00:00 17.3 5 Oeste 10 Oeste 0 -- -- 84
2019-08-03 07:00:00 17.1 5 Oeste 12 Norte 0 -- -- 82
2019-08-03 06:00:00 17.2 3 Oeste 12 Noroeste 0 -- -- 81
2019-08-03 05:00:00 17.7 5 Noroeste 40 Norte 0 -- -- 76
2019-08-03 04:00:00 19.1 30 Norte 46 Norte 0 -- -- 72
2019-08-03 03:00:00 19 29 Norte 44 Norte 0 -- -- 72
2019-08-03 02:00:00 18.9 30 Norte 45 Norte 0 -- -- 76
2019-08-03 01:00:00 19.3 26 Norte 46 Norte 0 -- -- 71
2019-08-03 00:00:00 19.8 27 Norte 45 Norte 0 -- -- 69
2019-08-02 23:00:00 20.1 24 Norte 36 Norte 0 -- -- 69
2019-08-02 22:00:00 20.8 9 Norte 21 Norte 0 -- -- 67
2019-08-02 21:00:00 22.2 4 Sudoeste 25 Nordeste 0 -- -- 64
2019-08-02 20:00:00 25.3 14 Norte 44 Norte 0 -- -- 50
2019-08-02 19:00:00 25.2 32 Norte 51 Norte 0 -- -- 55
2019-08-02 18:00:00 26.3 35 Norte 54 Norte 0 -- -- 52
2019-08-02 17:00:00 27.2 35 Nordeste 50 Norte 0 -- -- 50
2019-08-02 16:00:00 27.4 32 Norte 51 Norte 0 -- -- 47
2019-08-02 15:00:00 27.5 35 Norte 56 Norte 0 -- -- 48
2019-08-02 14:00:00 27.2 36 Norte 56 Nordeste 0 -- -- 48
2019-08-02 13:00:00 26.2 37 Norte 53 Norte 0 -- -- 51
2019-08-02 12:00:00 25.6 31 Norte 48 Nordeste 0 -- -- 52
2019-08-02 11:00:00 24 34 Nordeste 49 Nordeste 0 -- -- 56
2019-08-02 10:00:00 22.8 22 Norte 41 Nordeste 0 -- -- 60
2019-08-02 09:00:00 20.5 32 Norte 48 Norte 0 -- -- 67
2019-08-02 08:00:00 18.6 21 Norte 34 Norte 0 -- -- 75
2019-08-02 07:00:00 18.6 18 Norte 39 Norte 0 -- -- 72
2019-08-02 06:00:00 18.4 24 Norte 39 Norte 0 -- -- 73
2019-08-02 05:00:00 18.3 23 Norte 38 Noroeste 0 -- -- 72
2019-08-02 04:00:00 18.4 18 Norte 39 Norte 0 -- -- 69
2019-08-02 03:00:00 18.6 26 Norte 39 Norte 0 -- -- 71
2019-08-02 02:00:00 19.1 21 Norte 38 Norte 0 -- -- 70
2019-08-02 01:00:00 19.5 26 Norte 44 Norte 0 -- -- 66
2019-08-02 00:00:00 18.8 5 Norte 16 Nordeste 0 -- -- 73
2019-08-01 23:00:00 19.7 3 Oeste 23 Norte 0 -- -- 68
2019-08-01 22:00:00 20.3 6 Norte 21 Nordeste 0 -- -- 66
2019-08-01 21:00:00 21.1 19 Norte 46 Norte 0 -- -- 62
2019-08-01 20:00:00 22.4 33 Norte 46 Norte 0 -- -- 60
2019-08-01 19:00:00 24.6 28 Norte 54 Norte 0 -- -- 53
2019-08-01 18:00:00 25.9 31 Nordeste 52 Nordeste 0 -- -- 51
2019-08-01 17:00:00 26 36 Norte 60 Norte 0 -- -- 51
2019-08-01 16:00:00 26.9 32 Norte 50 Nordeste 0 -- -- 51
2019-08-01 15:00:00 27.4 34 Norte 53 Norte 0 -- -- 45
2019-08-01 14:00:00 26.1 38 Norte 55 Nordeste 0 -- -- 50
2019-08-01 13:00:00 25.1 38 Norte 59 Norte 0 -- -- 54
2019-08-01 12:00:00 24.6 35 Norte 55 Norte 0 -- -- 51
2019-08-01 11:00:00 23.3 34 Norte 51 Norte 0 -- -- 59
2019-08-01 10:00:00 22.2 27 Norte 40 Norte 0 -- -- 58
2019-08-01 09:00:00 20.3 17 Norte 41 Norte 0 -- -- 68
2019-08-01 08:00:00 16.7 4 Noroeste 13 Norte 0 -- -- 83
2019-08-01 07:00:00 16.5 5 Oeste 10 Noroeste 0 -- -- 81
2019-08-01 06:00:00 16.8 4 Noroeste 12 Noroeste 0 -- -- 80
2019-08-01 05:00:00 16.7 5 Norte 8 Noroeste 0 -- -- 78
2019-08-01 04:00:00 17 2 Noroeste 6 Norte 0 -- -- 76
2019-08-01 03:00:00 17.3 2 Oeste 11 Sudoeste 0 -- -- 75
2019-08-01 02:00:00 17.6 4 Noroeste 10 Noroeste 0 -- -- 72
2019-08-01 01:00:00 18.4 4 Nordeste 23 Norte 0 -- -- 71
2019-08-01 00:00:00 19.3 14 Norte 28 Nordeste 0 -- -- 61
2019-07-31 23:00:00 19.8 10 Norte 28 Norte 0 -- -- 61
2019-07-31 22:00:00 20 3 Sur 16 Sur 0 -- -- 66
2019-07-31 21:00:00 21.2 8 Nordeste 22 Norte 0 -- -- 55
2019-07-31 20:00:00 22.9 9 Sur 37 Norte 0 -- -- 57
2019-07-31 19:00:00 25 12 Sudeste 48 Norte 0 -- -- 48
2019-07-31 18:00:00 25.7 22 Norte 49 Nordeste 0 -- -- 45
2019-07-31 17:00:00 26.7 33 Norte 58 Norte 0 -- -- 44
2019-07-31 16:00:00 25.8 39 Norte 53 Norte 0 -- -- 45
2019-07-31 15:00:00 26.9 26 Norte 42 Norte 0 -- -- 47
2019-07-31 14:00:00 25.7 32 Norte 54 Norte 0 -- -- 47
2019-07-31 13:00:00 25 32 Norte 55 Norte 0 -- -- 47
2019-07-31 12:00:00 23.7 33 Norte 57 Norte 0 -- -- 50
2019-07-31 11:00:00 22.6 38 Norte 61 Norte 0 -- -- 54
2019-07-31 10:00:00 21.2 41 Norte 61 Norte 0 -- -- 59
2019-07-31 09:00:00 19.9 36 Norte 59 Norte 0 -- -- 63
2019-07-31 08:00:00 18.7 24 Norte 51 Norte 0 -- -- 65
2019-07-31 07:00:00 18.5 27 Norte 49 Norte 0 -- -- 65
2019-07-31 06:00:00 18.6 29 Norte 63 Norte 0 -- -- 64
2019-07-31 05:00:00 18.9 34 Norte 58 Norte 0 -- -- 63
2019-07-31 04:00:00 19.3 10 Norte 45 Norte 0 -- -- 71
2019-07-31 03:00:00 19.9 11 Noroeste 43 Norte 0 -- -- 65
2019-07-31 02:00:00 20.2 29 Norte 66 Norte 0 -- -- 57
2019-07-31 01:00:00 19.1 42 Norte 69 Norte 0 -- -- 68
2019-07-31 00:00:00 19.8 39 Norte 59 Norte 0 -- -- 61
2019-07-30 23:00:00 20.1 38 Norte 67 Norte 0 -- -- 60
2019-07-30 22:00:00 20.5 40 Norte 62 Norte 0 -- -- 60
2019-07-30 21:00:00 20.7 37 Norte 69 Norte 0 -- -- 62
2019-07-30 20:00:00 21.3 44 Norte 65 Norte 0 -- -- 61
2019-07-30 19:00:00 22.5 44 Norte 76 Norte 0 -- -- 59
2019-07-30 18:00:00 23.4 48 Norte 68 Norte 0 -- -- 57
2019-07-30 17:00:00 24.6 41 Norte 62 Norte 0 -- -- 54
2019-07-30 16:00:00 25 42 Norte 68 Norte 0 -- -- 55
2019-07-30 15:00:00 24.8 45 Norte 75 Norte 0 -- -- 56
2019-07-30 14:00:00 25.2 45 Norte 72 Norte 0 -- -- 53
2019-07-30 13:00:00 24.6 44 Norte 69 Norte 0 -- -- 58
2019-07-30 12:00:00 23.5 45 Norte 64 Norte 0 -- -- 63
2019-07-30 11:00:00 23 40 Norte 63 Norte 0 -- -- 65
2019-07-30 10:00:00 22.9 36 Norte 58 Norte 0 -- -- 62
2019-07-30 09:00:00 21.5 28 Norte 59 Norte 0 -- -- 64
2019-07-30 08:00:00 19.7 33 Norte 53 Nordeste 0 -- -- 80
2019-07-30 07:00:00 20.6 35 Norte 60 Norte 0 -- -- 73
2019-07-30 06:00:00 21.1 31 Norte 67 Norte 0 -- -- 66
2019-07-30 05:00:00 20.7 33 Norte 62 Norte 0 -- -- 69
2019-07-30 04:00:00 20.7 35 Norte 65 Norte 0 -- -- 71
2019-07-30 03:00:00 21 40 Norte 69 Norte 0 -- -- 68
2019-07-30 02:00:00 21.3 43 Norte 72 Norte 0 -- -- 68
2019-07-30 01:00:00 21.4 40 Norte 68 Norte 0 -- -- 68
2019-07-30 00:00:00 21.5 41 Norte 70 Norte 0 -- -- 69
2019-07-29 23:00:00 21.5 42 Norte 73 Norte 0 -- -- 63
2019-07-29 22:00:00 21.4 46 Norte 77 Norte 0 -- -- 60
2019-07-29 21:00:00 21.5 39 Norte 66 Norte 0 -- -- 60
2019-07-29 20:00:00 22.6 40 Norte 73 Norte 0 -- -- 56
2019-07-29 19:00:00 24 50 Norte 68 Norte 0 -- -- 50
2019-07-29 18:00:00 26.7 35 Norte 55 Norte 0 -- -- 43
2019-07-29 17:00:00 27.5 39 Norte 60 Norte 0 -- -- 42
2019-07-29 16:00:00 29 36 Norte 62 Norte 0 -- -- 34
2019-07-29 15:00:00 28.8 41 Norte 66 Norte 0 -- -- 35
2019-07-29 14:00:00 27.9 36 Norte 57 Norte 0 -- -- 40
2019-07-29 13:00:00 26.6 39 Norte 58 Norte 0 -- -- 47
2019-07-29 12:00:00 25.7 36 Norte 58 Norte 0 -- -- 49
2019-07-29 11:00:00 24.2 35 Norte 59 Norte 0 -- -- 53
2019-07-29 10:00:00 22.9 12 Norte 42 Nordeste 0 -- -- 59
2019-07-29 09:00:00 20.8 4 Sudoeste 9 Sur 0 -- -- 74
2019-07-29 08:00:00 18.2 4 Sudoeste 9 Este 0 -- -- 81
2019-07-29 07:00:00 18.1 4 Noroeste 27 Norte 0 -- -- 79
2019-07-29 06:00:00 19.1 18 Norte 35 Norte 0 -- -- 72
2019-07-29 05:00:00 19.2 14 Norte 32 Nordeste 0 -- -- 72
2019-07-29 04:00:00 19.5 18 Norte 29 Norte 0 -- -- 70
2019-07-29 03:00:00 19.8 24 Norte 41 Nordeste 0 -- -- 69
2019-07-29 02:00:00 20 20 Nordeste 39 Norte 0 -- -- 68
2019-07-29 01:00:00 20.3 19 Norte 34 Norte 0 -- -- 66
2019-07-29 00:00:00 20.6 8 Norte 26 Nordeste 0 -- -- 66
2019-07-28 23:00:00 21 5 Sur 14 Sur 0 -- -- 72
2019-07-28 22:00:00 21.8 4 Sur 16 Norte 0 -- -- 72
2019-07-28 21:00:00 22.8 5 Norte 23 Norte 0 -- -- 63
2019-07-28 20:00:00 25.9 13 Norte 45 Norte 0 -- -- 53
2019-07-28 19:00:00 27.3 26 Nordeste 57 Norte 0 -- -- 50
2019-07-28 18:00:00 28.2 28 Norte 50 Nordeste 0 -- -- 51
2019-07-28 17:00:00 29 16 Norte 50 Norte 0 -- -- 50
2019-07-28 16:00:00 29.1 26 Norte 60 Norte 0 -- -- 50
2019-07-28 15:00:00 28.9 40 Norte 64 Norte 0 -- -- 52
2019-07-28 14:00:00 29 42 Norte 67 Nordeste 0 -- -- 52
2019-07-28 13:00:00 29 36 Norte 57 Norte 0 -- -- 52
2019-07-28 12:00:00 27.5 36 Norte 58 Norte 0 -- -- 55
2019-07-28 11:00:00 25.2 41 Norte 61 Norte 0 -- -- 64
2019-07-28 10:00:00 25.4 32 Norte 48 Norte 0 -- -- 60
2019-07-28 09:00:00 23.5 25 Norte 44 Norte 0 -- -- 63
2019-07-28 08:00:00 21.2 27 Norte 59 Norte 0 -- -- 66
2019-07-28 07:00:00 20.4 35 Norte 56 Nordeste 0 -- -- 74
2019-07-28 06:00:00 20.4 34 Norte 56 Norte 0 -- -- 75
2019-07-28 05:00:00 20.3 34 Norte 60 Norte 0 -- -- 73
2019-07-28 04:00:00 20.4 29 Norte 57 Nordeste 0 -- -- 73
2019-07-28 03:00:00 20.8 39 Norte 66 Norte 0 -- -- 72
2019-07-28 02:00:00 20.3 53 Norte 72 Norte 0 -- -- 76
2019-07-28 01:00:00 20 41 Norte 55 Norte 0 -- -- 62
2019-07-28 00:00:00 20.9 40 Norte 59 Norte 0 -- -- 50
2019-07-27 23:00:00 20.1 47 Norte 61 Norte 0 -- -- 65
2019-07-27 22:00:00 20.7 41 Norte 59 Norte 0 -- -- 59
2019-07-26 11:00:00 -- -- -- -- -- -- -- -- --
2019-07-26 10:00:00 27.3 42 Norte 59 Norte 0 -- -- 45
2019-07-26 09:00:00 28.6 37 Norte 57 Norte 0 -- -- 28
2019-07-26 08:00:00 27.1 44 Norte 57 Norte 0 -- -- 31
2019-07-26 07:00:00 26.4 36 Norte 62 Norte 0 -- -- 35
2019-07-26 06:00:00 25.2 40 Norte 61 Norte 0 -- -- 47
2019-07-26 05:00:00 25.5 33 Norte 62 Norte 0 -- -- 43
2019-07-26 04:00:00 25.5 46 Norte 66 Norte 0 -- -- 45
2019-07-26 03:00:00 25.2 41 Norte 67 Norte 0 -- -- 48
2019-07-26 02:00:00 25.6 50 Norte 72 Norte 0 -- -- 42
2019-07-26 01:00:00 26.4 46 Norte 66 Norte 0 -- -- 29
2019-07-26 00:00:00 27.7 44 Norte 63 Norte 0 -- -- 19